Delavan, Wisconsin
Current Conditions -  °F | °C
As of 6:55 PM on Wednesday 22 Oct 2014 (Local Time) from KBUU Reporting Station
Clear Clear  
Wind Chill: 40°   Ceiling: Unl
Heat Index: 43°   Visibility: 10mi
Dew Point: 38°   Wind: 6mph
Humidity: 81%   Direction: 110°ESE
Pressure: 30.26"   Gusts: NA
Location:  42.63°N, 88.65°W
Report Text: KBUU 222355Z AUTO 11005KT 10SM CLR 06/03 A3026 RMK AO2 T00620031 10136 20062
Loading
Personal Weather Stations






























Interactive Weather Map
Tropical Storm Tracking
New forecast layout! Learn more

10-Day Weather Forecast

Advertisements
Track Severe Weather on mobile